createdAt,value
2019-04-07T00:00:02.917Z,100726.86
2019-04-07T00:02:33.112Z,100721.20
2019-04-07T00:05:11.031Z,100720.31
2019-04-07T00:07:35.281Z,100721.20
2019-04-07T00:10:09.775Z,100720.75
2019-04-07T00:12:40.140Z,100715.95
2019-04-07T00:15:10.468Z,100719.00
2019-04-07T00:17:40.715Z,100722.95
2019-04-07T00:20:11.035Z,100716.81
2019-04-07T00:22:41.185Z,100725.56
2019-04-07T00:25:11.929Z,100721.21
2019-04-07T00:27:42.185Z,100722.06
2019-04-07T00:30:13.623Z,100718.14
2019-04-07T00:32:44.259Z,100718.13
2019-04-07T00:35:23.321Z,100718.56
2019-04-07T00:37:46.747Z,100722.05
2019-04-07T00:40:17.521Z,100721.63
2019-04-07T00:42:48.046Z,100727.28
2019-04-07T00:45:18.550Z,100728.14
2019-04-07T00:47:49.388Z,100723.34
2019-04-07T00:50:19.591Z,100725.50
2019-04-07T00:52:50.207Z,100723.31
2019-04-07T00:55:20.476Z,100720.25
2019-04-07T00:57:50.785Z,100725.45
2019-04-07T01:00:23.516Z,100720.22
2019-04-07T01:02:54.122Z,100720.23
2019-04-07T01:05:35.337Z,100717.59
2019-04-07T01:07:56.446Z,100715.39
2019-04-07T01:10:27.271Z,100723.23
2019-04-07T01:12:57.376Z,100718.41
2019-04-07T01:15:27.887Z,100722.34
2019-04-07T01:17:58.054Z,100717.53
2019-04-07T01:20:28.199Z,100715.77
2019-04-07T01:22:58.287Z,100710.94
2019-04-07T01:25:28.423Z,100719.23
2019-04-07T01:27:58.642Z,100723.14
2019-04-07T01:30:29.327Z,100726.62
2019-04-07T01:33:00.015Z,100719.62
2019-04-07T01:35:30.452Z,100719.16
2019-04-07T01:38:01.364Z,100722.60
2019-04-07T01:40:32.203Z,100726.50
2019-04-07T01:43:25.067Z,100723.91
2019-04-07T01:46:05.194Z,100725.63
2019-04-07T01:48:53.289Z,100720.36
2019-04-07T01:51:41.068Z,100722.57
2019-04-07T01:54:28.582Z,100724.32
2019-04-07T01:57:06.481Z,100716.91
2019-04-07T01:59:54.082Z,100720.39
2019-04-07T02:02:41.379Z,100718.23
2019-04-07T02:05:39.539Z,100715.16
2019-04-07T02:08:25.494Z,100715.59
2019-04-07T02:11:06.042Z,100708.19
2019-04-07T02:13:48.425Z,100708.61
2019-04-07T02:16:46.595Z,100707.31
2019-04-07T02:19:34.450Z,100708.61
2019-04-07T02:22:11.624Z,100708.19
2019-04-07T02:27:31.824Z,100706.89
2019-04-07T02:30:14.392Z,100706.86
2019-04-07T02:33:03.565Z,100702.94
2019-04-07T02:35:52.681Z,100710.78
2019-04-07T02:38:39.843Z,100703.34
2019-04-07T02:41:26.092Z,100702.03
2019-04-07T02:44:17.921Z,100701.16
2019-04-07T02:46:56.931Z,100702.02
2019-04-07T02:49:52.602Z,100703.33
2019-04-07T02:52:53.451Z,100702.03
2019-04-07T02:55:38.052Z,100701.56
2019-04-07T02:58:25.796Z,100695.49
2019-04-07T03:01:11.765Z,100698.95
2019-04-07T03:04:09.745Z,100697.64
2019-04-07T03:07:07.814Z,100696.34
2019-04-07T03:10:09.011Z,100701.56
2019-04-07T03:13:10.636Z,100695.43
2019-04-07T03:15:46.214Z,100697.17
2019-04-07T03:18:47.223Z,100698.06
2019-04-07T03:21:45.827Z,100701.98
2019-04-07T03:24:33.563Z,100702.41
2019-04-07T03:27:22.077Z,100704.16
2019-04-07T03:30:25.149Z,100702.41
2019-04-07T03:33:21.588Z,100705.47
2019-04-07T03:36:10.750Z,100703.73
2019-04-07T03:38:58.153Z,100701.09
2019-04-07T03:41:57.085Z,100700.61
2019-04-07T03:44:36.602Z,100701.87
2019-04-07T03:47:12.637Z,100701.80
2019-04-07T03:50:03.567Z,100703.08
2019-04-07T03:52:52.627Z,100706.56
2019-04-07T03:55:29.905Z,100703.90
2019-04-07T03:58:18.134Z,100709.08
2019-04-07T04:01:33.026Z,100706.45
2019-04-07T04:04:15.748Z,100709.92
2019-04-07T04:07:16.339Z,100708.99
2019-04-07T04:09:51.784Z,100712.50
2019-04-07T04:12:29.803Z,100710.33
2019-04-07T04:15:03.633Z,100714.88
2019-04-07T04:17:34.674Z,100716.56
2019-04-07T04:20:06.224Z,100717.44
2019-04-07T04:22:36.644Z,100723.95
2019-04-07T04:25:08.638Z,100726.14
2019-04-07T04:27:39.200Z,100726.09
2019-04-07T04:30:11.851Z,100726.95
2019-04-07T04:32:42.314Z,100724.32
2019-04-07T04:35:12.517Z,100730.84
2019-04-07T04:37:49.627Z,100733.41
2019-04-07T04:40:15.951Z,100728.16
2019-04-07T04:42:46.163Z,100732.03
2019-04-07T04:45:16.387Z,100729.80
2019-04-07T04:47:46.700Z,100729.31
2019-04-07T04:50:16.916Z,100734.92
2019-04-07T04:52:47.169Z,100738.83
2019-04-07T04:55:17.296Z,100740.52
2019-04-07T04:57:47.986Z,100747.45
2019-04-07T05:00:18.848Z,100750.94
2019-04-07T05:02:50.342Z,100753.11
2019-04-07T05:05:21.228Z,100754.89
2019-04-07T05:07:59.131Z,100758.80
2019-04-07T05:10:24.843Z,100760.56
2019-04-07T05:12:56.083Z,100758.84
2019-04-07T05:15:26.729Z,100764.52
2019-04-07T05:17:57.367Z,100760.23
2019-04-07T05:20:28.485Z,100754.11
2019-04-07T05:22:59.816Z,100769.89
2019-04-07T05:25:30.305Z,100761.63
2019-04-07T05:28:01.221Z,100773.84
2019-04-07T05:30:32.472Z,100774.33
2019-04-07T05:35:34.135Z,100776.66
2019-04-07T05:38:06.622Z,100781.48
2019-04-07T05:40:36.743Z,100783.23
2019-04-07T05:43:07.308Z,100785.09
2019-04-07T05:45:37.806Z,100788.66
2019-04-07T05:48:08.339Z,100791.37
2019-04-07T05:50:39.508Z,100796.66
2019-04-07T05:53:13.453Z,100790.63
2019-04-07T05:55:43.650Z,100797.72
2019-04-07T05:58:15.847Z,100799.95
2019-04-07T06:00:48.615Z,100802.61
2019-04-07T06:03:23.894Z,100802.22
2019-04-07T06:05:55.021Z,100811.45
2019-04-07T06:08:36.025Z,100804.51
2019-04-07T06:11:02.446Z,100804.56
2019-04-07T06:13:43.360Z,100812.87
2019-04-07T06:16:14.073Z,100810.72
2019-04-07T06:18:44.547Z,100807.68
2019-04-07T06:21:16.147Z,100813.80
2019-04-07T06:23:46.953Z,100817.30
2019-04-07T06:26:17.626Z,100812.06
2019-04-07T06:28:51.560Z,100812.52
2019-04-07T06:31:21.562Z,100814.25
2019-04-07T06:33:54.910Z,100808.14
2019-04-07T06:36:26.576Z,100814.68
2019-04-07T06:38:56.417Z,100812.91
2019-04-07T06:41:30.082Z,100814.20
2019-04-07T06:44:08.735Z,100809.38
2019-04-07T06:46:35.903Z,100814.60
2019-04-07T06:49:14.033Z,100813.28
2019-04-07T06:51:55.478Z,100815.02
2019-04-07T06:58:06.113Z,100821.92
2019-04-07T07:00:46.041Z,100819.27
2019-04-07T07:03:41.873Z,100825.78
2019-04-07T07:06:28.531Z,100824.00
2019-04-07T07:09:11.150Z,100822.61
2019-04-07T07:11:56.137Z,100824.31
2019-04-07T07:14:55.039Z,100829.06
2019-04-07T07:17:59.983Z,100836.47
2019-04-07T07:20:52.669Z,100833.77
2019-04-07T07:23:27.309Z,100828.89
2019-04-07T07:26:00.987Z,100829.76
2019-04-07T07:28:29.567Z,100834.08
2019-04-07T07:31:00.084Z,100830.06
2019-04-07T07:33:30.189Z,100825.57
2019-04-07T07:36:01.155Z,100831.16
2019-04-07T07:38:32.740Z,100827.97
2019-04-07T07:41:04.636Z,100830.87
2019-04-07T07:43:36.017Z,100828.94
2019-04-07T07:46:06.879Z,100830.13
2019-04-07T07:48:37.753Z,100829.91
2019-04-07T07:51:10.926Z,100833.28
2019-04-07T07:53:40.419Z,100837.96
2019-04-07T07:56:13.119Z,100838.71
2019-04-07T07:58:42.558Z,100837.65
2019-04-07T08:01:14.872Z,100842.72
2019-04-07T08:03:45.869Z,100842.05
2019-04-07T08:06:17.261Z,100843.61
2019-04-07T08:08:48.617Z,100839.48
2019-04-07T08:11:19.000Z,100838.84
2019-04-07T08:13:49.242Z,100832.95
2019-04-07T08:16:19.441Z,100839.00
2019-04-07T08:18:49.950Z,100833.17
2019-04-07T08:21:20.546Z,100840.00
2019-04-07T08:23:50.834Z,100847.29
2019-04-07T08:26:24.351Z,100853.23
2019-04-07T08:28:53.376Z,100852.98
2019-04-07T08:31:24.108Z,100849.25
2019-04-07T08:33:54.861Z,100849.91
2019-04-07T08:36:25.886Z,100852.36
2019-04-07T08:38:57.168Z,100852.10
2019-04-07T08:41:27.801Z,100846.97
2019-04-07T08:43:58.063Z,100852.48
2019-04-07T08:46:35.603Z,100852.20
2019-04-07T08:49:03.686Z,100849.31
2019-04-07T08:51:33.983Z,100853.81
2019-04-07T08:54:04.875Z,100849.04
2019-04-07T08:56:36.639Z,100844.75
2019-04-07T08:59:09.498Z,100850.58
2019-04-07T09:01:38.799Z,100856.06
2019-04-07T09:04:09.473Z,100850.09
2019-04-07T09:06:39.773Z,100853.36
2019-04-07T09:09:10.119Z,100856.06
2019-04-07T09:11:41.583Z,100857.49
2019-04-07T09:14:14.729Z,100851.92
2019-04-07T09:17:02.272Z,100862.63
2019-04-07T09:19:54.699Z,100857.81
2019-04-07T09:22:34.714Z,100865.00
2019-04-07T09:25:18.213Z,100861.06
2019-04-07T09:28:14.254Z,100866.88
2019-04-07T09:30:50.563Z,100858.27
2019-04-07T09:33:39.876Z,100869.98
2019-04-07T09:36:37.988Z,100869.27
2019-04-07T09:39:26.944Z,100872.55
2019-04-07T09:42:18.693Z,100864.75
2019-04-07T09:45:09.541Z,100866.75
2019-04-07T09:47:55.244Z,100868.23
2019-04-07T09:50:35.025Z,100862.50
2019-04-07T09:53:30.480Z,100865.11
2019-04-07T09:56:18.393Z,100865.74
2019-04-07T09:59:19.189Z,100867.78
2019-04-07T10:02:16.638Z,100868.98
2019-04-07T10:05:04.147Z,100868.66
2019-04-07T10:07:56.777Z,100868.13
2019-04-07T10:11:00.847Z,100871.05
2019-04-07T10:13:40.913Z,100868.60
2019-04-07T10:16:20.116Z,100870.34
2019-04-07T10:18:59.332Z,100877.87
2019-04-07T10:22:00.248Z,100866.17
2019-04-07T10:24:47.178Z,100861.86
2019-04-07T10:27:45.096Z,100868.29
2019-04-07T10:30:24.329Z,100869.72
2019-04-07T10:33:26.124Z,100871.61
2019-04-07T10:36:14.785Z,100869.17
2019-04-07T10:39:02.018Z,100873.73
2019-04-07T10:41:43.194Z,100871.39
2019-04-07T10:44:38.131Z,100874.55
2019-04-07T10:47:23.947Z,100869.53
2019-04-07T10:50:13.013Z,100870.66
2019-04-07T10:53:02.654Z,100871.88
2019-04-07T10:55:39.588Z,100873.66
2019-04-07T10:58:24.804Z,100875.06
2019-04-07T11:01:17.738Z,100869.91
2019-04-07T11:04:11.780Z,100871.53
2019-04-07T11:06:57.454Z,100874.58
2019-04-07T11:09:47.521Z,100883.34
2019-04-07T11:12:42.990Z,100872.23
2019-04-07T11:15:37.049Z,100869.70
2019-04-07T11:18:22.973Z,100870.37
2019-04-07T11:21:11.087Z,100863.46
2019-04-07T11:24:06.493Z,100859.47
2019-04-07T11:27:01.827Z,100857.84
2019-04-07T11:29:39.764Z,100858.23
2019-04-07T11:32:28.936Z,100859.66
2019-04-07T11:35:12.769Z,100857.86
2019-04-07T11:37:49.471Z,100859.44
2019-04-07T11:40:52.194Z,100859.35
2019-04-07T11:43:30.575Z,100857.03
2019-04-07T11:46:37.557Z,100851.36
2019-04-07T11:49:43.867Z,100856.27
2019-04-07T11:52:24.590Z,100841.37
2019-04-07T11:55:26.817Z,100845.67
2019-04-07T11:58:33.133Z,100846.82
2019-04-07T12:01:28.181Z,100848.63
2019-04-07T12:04:17.332Z,100858.19
2019-04-07T12:07:00.027Z,100845.12
2019-04-07T12:09:41.245Z,100855.03
2019-04-07T12:12:40.407Z,100850.56
2019-04-07T12:15:45.208Z,100845.14
2019-04-07T12:18:49.376Z,100849.56
2019-04-07T12:21:36.070Z,100849.83
2019-04-07T12:24:25.858Z,100842.85
2019-04-07T12:27:13.577Z,100848.09
2019-04-07T12:30:02.865Z,100840.56
2019-04-07T12:32:41.858Z,100846.77
2019-04-07T12:35:37.030Z,100844.16
2019-04-07T12:38:33.853Z,100841.53
2019-04-07T12:41:31.816Z,100843.84
2019-04-07T12:44:23.392Z,100844.23
2019-04-07T12:47:12.417Z,100847.34
2019-04-07T12:49:50.101Z,100845.20
2019-04-07T12:52:35.497Z,100833.14
2019-04-07T12:55:29.388Z,100842.23
2019-04-07T12:58:10.810Z,100835.43
2019-04-07T13:01:05.708Z,100839.59
2019-04-07T13:03:48.144Z,100838.48
2019-04-07T13:06:32.010Z,100831.10
2019-04-07T13:09:11.669Z,100832.32
2019-04-07T13:12:13.983Z,100829.31
2019-04-07T13:14:56.249Z,100825.36
2019-04-07T13:17:43.751Z,100831.00
2019-04-07T13:20:37.217Z,100826.19
2019-04-07T13:23:17.724Z,100826.55
2019-04-07T13:26:02.300Z,100831.55
2019-04-07T13:28:57.611Z,100826.18
2019-04-07T13:31:46.071Z,100831.17
2019-04-07T13:34:37.468Z,100826.80
2019-04-07T13:37:21.711Z,100835.55
2019-04-07T13:40:11.479Z,100828.19
2019-04-07T13:43:04.240Z,100831.70
2019-04-07T13:45:56.902Z,100831.95
2019-04-07T13:48:38.132Z,100837.47
2019-04-07T13:51:24.018Z,100827.94
2019-04-07T13:54:22.278Z,100832.61
2019-04-07T13:57:11.389Z,100826.48
2019-04-07T13:59:52.104Z,100827.75
2019-04-07T14:02:41.998Z,100825.00
2019-04-07T14:05:40.038Z,100820.23
2019-04-07T14:08:37.551Z,100812.10
2019-04-07T14:11:18.702Z,100812.80
2019-04-07T14:14:03.222Z,100817.52
2019-04-07T14:16:50.912Z,100821.98
2019-04-07T14:19:39.783Z,100815.82
2019-04-07T14:22:17.677Z,100821.31
2019-04-07T14:25:06.856Z,100814.53
2019-04-07T14:27:47.316Z,100817.56
2019-04-07T14:30:45.911Z,100806.31
2019-04-07T14:33:33.832Z,100812.98
2019-04-07T14:36:10.623Z,100815.20
2019-04-07T14:38:58.601Z,100812.63
2019-04-07T14:41:47.394Z,100809.92
2019-04-07T14:44:32.044Z,100817.58
2019-04-07T14:47:23.908Z,100814.00
2019-04-07T14:50:12.111Z,100813.63
2019-04-07T14:52:54.777Z,100820.90
2019-04-07T14:55:34.150Z,100819.09
2019-04-07T14:58:38.314Z,100820.52
2019-04-07T15:01:25.809Z,100813.42
2019-04-07T15:03:56.247Z,100814.41
2019-04-07T15:06:30.948Z,100820.27
2019-04-07T15:09:22.432Z,100810.02
2019-04-07T15:11:58.764Z,100818.45
2019-04-07T15:14:31.460Z,100813.16
2019-04-07T15:17:01.004Z,100819.10
2019-04-07T15:19:31.234Z,100812.28
2019-04-07T15:22:03.026Z,100814.86
2019-04-07T15:24:36.631Z,100810.16
2019-04-07T15:27:07.906Z,100813.42
2019-04-07T15:29:44.768Z,100810.83
2019-04-07T15:32:14.196Z,100811.23
2019-04-07T15:34:44.517Z,100814.02
2019-04-07T15:37:15.408Z,100814.72
2019-04-07T15:39:45.899Z,100810.09
2019-04-07T15:42:31.434Z,100813.26
2019-04-07T15:44:48.404Z,100810.67
2019-04-07T15:47:23.137Z,100817.79
2019-04-07T15:49:54.098Z,100813.59
2019-04-07T15:52:24.650Z,100807.16
2019-04-07T15:54:56.078Z,100805.40
2019-04-07T15:57:26.414Z,100808.66
2019-04-07T16:00:00.097Z,100812.47
2019-04-07T16:02:28.968Z,100806.50
2019-04-07T16:05:02.374Z,100813.49
2019-04-07T16:07:31.729Z,100808.64
2019-04-07T16:10:02.296Z,100809.41
2019-04-07T16:12:43.500Z,100809.67
2019-04-07T16:15:07.586Z,100815.48
2019-04-07T16:17:38.453Z,100803.72
2019-04-07T16:20:19.898Z,100814.99
2019-04-07T16:22:45.792Z,100817.14
2019-04-07T16:25:15.493Z,100819.08
2019-04-07T16:27:47.483Z,100814.82
2019-04-07T16:30:20.415Z,100814.77
2019-04-07T16:32:51.170Z,100823.31
2019-04-07T16:35:22.406Z,100816.45
2019-04-07T16:37:53.195Z,100815.97
2019-04-07T16:40:23.834Z,100820.30
2019-04-07T16:43:04.575Z,100822.41
2019-04-07T16:45:26.152Z,100826.97
2019-04-07T16:47:56.589Z,100831.97
2019-04-07T16:50:27.246Z,100829.66
2019-04-07T16:53:03.031Z,100827.02
2019-04-07T16:55:40.301Z,100827.95
2019-04-07T16:58:14.510Z,100822.54
2019-04-07T17:00:45.300Z,100833.92
2019-04-07T17:03:15.589Z,100831.28
2019-04-07T17:05:46.295Z,100829.64
2019-04-07T17:08:19.405Z,100828.72
2019-04-07T17:10:48.858Z,100835.75
2019-04-07T17:13:28.158Z,100836.84
2019-04-07T17:15:52.811Z,100832.72
2019-04-07T17:18:43.410Z,100835.72
2019-04-07T17:21:16.681Z,100828.88
2019-04-07T17:23:47.636Z,100833.39
2019-04-07T17:26:18.182Z,100832.27
2019-04-07T17:28:49.840Z,100837.92
2019-04-07T17:31:20.813Z,100838.45
2019-04-07T17:33:51.989Z,100843.14
2019-04-07T17:36:23.031Z,100846.00
2019-04-07T17:39:11.594Z,100848.15
2019-04-07T17:41:42.097Z,100849.61
2019-04-07T17:44:23.081Z,100852.05
2019-04-07T17:47:02.113Z,100851.14
2019-04-07T17:50:04.270Z,100853.67
2019-04-07T17:52:42.947Z,100857.82
2019-04-07T17:55:35.031Z,100858.38
2019-04-07T17:58:16.058Z,100856.11
2019-04-07T18:01:06.221Z,100862.60
2019-04-07T18:03:52.831Z,100867.67
2019-04-07T18:06:38.651Z,100871.55
2019-04-07T18:12:19.731Z,100876.39
2019-04-07T18:15:17.510Z,100876.78
2019-04-07T18:18:10.128Z,100881.70
2019-04-07T18:20:56.118Z,100889.94
2019-04-07T18:23:45.571Z,100883.80
2019-04-07T18:26:25.153Z,100894.93
2019-04-07T18:29:04.039Z,100892.00
2019-04-07T18:31:57.880Z,100900.36
2019-04-07T18:34:50.150Z,100906.39
2019-04-07T18:37:52.882Z,100906.73
2019-04-07T18:41:00.378Z,100912.75
2019-04-07T18:43:51.995Z,100928.03
2019-04-07T18:46:42.209Z,100922.58
2019-04-07T18:49:31.420Z,100925.08
2019-04-07T18:52:07.396Z,100930.99
2019-04-07T18:55:07.768Z,100932.79
2019-04-07T18:58:13.085Z,100937.63
2019-04-07T19:00:54.162Z,100943.39
2019-04-07T19:03:51.165Z,100947.39
2019-04-07T19:06:48.764Z,100950.38
2019-04-07T19:09:36.679Z,100951.13
2019-04-07T19:12:23.234Z,100951.81
2019-04-07T19:15:25.483Z,100959.94
2019-04-07T19:18:14.884Z,100958.03
2019-04-07T19:20:57.798Z,100964.91
2019-04-07T19:23:45.782Z,100968.63
2019-04-07T19:26:52.303Z,100975.00
2019-04-07T19:29:43.444Z,100972.55
2019-04-07T19:32:34.975Z,100977.13
2019-04-07T19:35:21.874Z,100974.70
2019-04-07T19:38:26.225Z,100975.70
2019-04-07T19:41:18.763Z,100987.73
2019-04-07T19:44:13.705Z,100978.65
2019-04-07T19:46:48.392Z,100980.09
2019-04-07T19:49:41.045Z,100986.36
2019-04-07T19:52:48.239Z,100982.95
2019-04-07T19:55:44.434Z,100984.40
2019-04-07T19:58:19.851Z,100986.25
2019-04-07T20:01:12.688Z,100988.55
2019-04-07T20:03:53.917Z,100990.78
2019-04-07T20:06:41.992Z,100990.86
2019-04-07T20:09:27.875Z,100987.46
2019-04-07T20:12:16.319Z,100990.63
2019-04-07T20:15:03.006Z,100992.95
2019-04-07T20:17:53.654Z,100994.75
2019-04-07T20:20:55.085Z,101000.53
2019-04-07T20:23:41.775Z,101004.14
2019-04-07T20:26:31.108Z,101006.00
2019-04-07T20:29:10.387Z,101008.23
2019-04-07T20:34:37.393Z,101009.55
2019-04-07T20:40:19.315Z,101008.36
2019-04-07T20:45:16.250Z,101007.50
2019-04-07T20:48:05.819Z,101017.30
2019-04-07T20:50:54.106Z,101024.45
2019-04-07T20:53:52.510Z,101028.05
2019-04-07T20:56:33.196Z,101025.92
2019-04-07T20:59:47.145Z,101025.95
2019-04-07T21:02:27.052Z,101024.66
2019-04-07T21:05:14.783Z,101026.04
2019-04-07T21:08:00.742Z,101026.03
2019-04-07T21:10:43.487Z,101026.95
2019-04-07T21:13:36.290Z,101023.48
2019-04-07T21:16:28.093Z,101023.92
2019-04-07T21:19:18.794Z,101024.39
2019-04-07T21:22:06.940Z,101023.96
2019-04-07T21:25:02.068Z,101022.66
2019-04-07T21:27:52.648Z,101021.37
2019-04-07T21:30:48.381Z,101022.28
2019-04-07T21:33:44.192Z,101017.45
2019-04-07T21:36:32.577Z,101026.27
2019-04-07T21:42:20.987Z,101016.62
2019-04-07T21:45:27.824Z,101029.78
2019-04-07T21:48:13.740Z,101026.74
2019-04-07T21:50:51.597Z,101019.33
2019-04-07T21:53:30.910Z,101019.32
2019-04-07T21:56:23.118Z,101025.44
2019-04-07T21:59:26.603Z,101020.66
2019-04-07T22:02:15.330Z,101024.14
2019-04-07T22:05:07.576Z,101025.45
2019-04-07T22:07:44.733Z,101028.09
2019-04-07T22:10:19.409Z,101031.14
2019-04-07T22:12:47.779Z,101035.95
2019-04-07T22:15:18.136Z,101035.11
2019-04-07T22:17:48.390Z,101034.23
2019-04-07T22:20:20.275Z,101039.48
2019-04-07T22:22:51.312Z,101043.86
2019-04-07T22:25:31.169Z,101043.84
2019-04-07T22:28:01.677Z,101042.11
2019-04-07T22:30:36.066Z,101040.80
2019-04-07T22:33:04.199Z,101043.43
2019-04-07T22:35:38.307Z,101044.73
2019-04-07T22:38:07.270Z,101047.81
2019-04-07T22:40:39.144Z,101039.50
2019-04-07T22:43:09.643Z,101049.14
2019-04-07T22:45:39.945Z,101046.95
2019-04-07T22:48:10.281Z,101046.05
2019-04-07T22:50:41.324Z,101048.21
2019-04-07T22:53:11.646Z,101054.33
2019-04-07T22:55:42.125Z,101046.89
2019-04-07T22:58:12.425Z,101049.92
2019-04-07T23:00:42.808Z,101049.49
2019-04-07T23:03:12.987Z,101047.29
2019-04-07T23:05:43.449Z,101046.84
2019-04-07T23:08:14.542Z,101044.19
2019-04-07T23:10:44.831Z,101044.63
2019-04-07T23:13:15.410Z,101040.23
2019-04-07T23:15:47.365Z,101039.34
2019-04-07T23:18:17.945Z,101047.61
2019-04-07T23:20:48.119Z,101044.55
2019-04-07T23:23:18.341Z,101042.77
2019-04-07T23:25:48.521Z,101051.07
2019-04-07T23:28:18.917Z,101047.52
2019-04-07T23:30:49.309Z,101048.81
2019-04-07T23:33:20.200Z,101048.81
2019-04-07T23:35:50.379Z,101046.58
2019-04-07T23:38:20.513Z,101048.31
2019-04-07T23:40:51.510Z,101050.03
2019-04-07T23:43:21.789Z,101049.14
2019-04-07T23:45:51.956Z,101048.67
2019-04-07T23:48:22.360Z,101052.14
2019-04-07T23:50:52.509Z,101052.11
2019-04-07T23:54:14.429Z,101056.14
2019-04-07T23:56:45.812Z,101053.87
2019-04-07T23:59:16.811Z,101052.92
